Time;durP1;ratioP1;P1;durP2;ratioP2;P2;SDS_P1;SDS_P2;PMS_P1;PMS_P2;Temp;Humidity;BMP_temperature;BMP_pressure;BME280_temperature;BME280_humidity;BME280_pressure;Samples;Min_cycle;Max_cycle;Signal;HPM_P1;HPM_P2
2021/09/20 00:02:09;;;;;;;1.22;0.90;;;;;;;8.08;100.00;99078.90;1717938;83;21600;-79
2021/09/20 00:04:38;;;;;;;2.10;0.85;;;;;;;8.06;100.00;99079.89;1717778;83;21130;-78
2021/09/20 00:07:06;;;;;;;2.70;0.95;;;;;;;8.08;100.00;99074.97;1717806;83;21079;-78
2021/09/20 00:09:33;;;;;;;1.10;0.90;;;;;;;8.07;100.00;99075.87;1718226;83;21066;-76
2021/09/20 00:12:05;;;;;;;1.47;0.90;;;;;;;8.08;100.00;99076.28;1717974;83;21102;-76
2021/09/20 00:14:31;;;;;;;1.20;1.00;;;;;;;8.07;100.00;99070.63;1717790;83;22375;-76
2021/09/20 00:17:00;;;;;;;1.75;1.00;;;;;;;7.99;100.00;99073.59;1717921;83;21130;-76
2021/09/20 00:19:28;;;;;;;0.75;0.70;;;;;;;8.01;100.00;99071.37;1717703;83;21484;-76
2021/09/20 00:21:54;;;;;;;1.15;1.05;;;;;;;8.02;100.00;99076.53;1718059;83;21062;-77
2021/09/20 00:24:22;;;;;;;2.33;1.20;;;;;;;8.01;100.00;99074.84;1717907;83;21077;-77
2021/09/20 00:26:50;;;;;;;1.00;0.82;;;;;;;7.99;100.00;99067.03;1717674;83;21584;-77
2021/09/20 00:29:20;;;;;;;1.05;0.82;;;;;;;8.01;100.00;99066.13;1730165;80;21083;-77
2021/09/20 00:31:49;;;;;;;0.82;0.80;;;;;;;8.01;100.00;99064.36;1735580;82;21033;-77
2021/09/20 00:34:15;;;;;;;2.20;1.00;;;;;;;7.99;100.00;99062.26;1732847;82;21325;-78
2021/09/20 00:36:43;;;;;;;1.75;1.20;;;;;;;8.00;100.00;99066.56;1724877;82;21066;-77
2021/09/20 00:39:10;;;;;;;3.65;0.80;;;;;;;8.01;100.00;99060.42;1724663;83;21131;-77
2021/09/20 00:41:38;;;;;;;2.02;0.80;;;;;;;8.02;100.00;99059.49;1724569;82;21051;-76
2021/09/20 00:44:06;;;;;;;1.17;0.80;;;;;;;8.03;100.00;99053.34;1724815;82;21161;-76
2021/09/20 00:46:34;;;;;;;0.98;0.68;;;;;;;8.06;100.00;99057.13;1724780;82;21008;-77
2021/09/20 00:49:02;;;;;;;1.32;0.80;;;;;;;8.05;100.00;99060.69;1724526;82;21182;-77
2021/09/20 00:51:29;;;;;;;2.30;1.00;;;;;;;8.07;100.00;99054.89;1724984;83;21610;-78
2021/09/20 00:53:57;;;;;;;1.50;0.95;;;;;;;8.05;100.00;99052.83;1724871;82;21188;-77
2021/09/20 00:56:25;;;;;;;1.10;1.00;;;;;;;8.05;100.00;99048.02;1725187;82;22188;-80
2021/09/20 00:58:53;;;;;;;1.52;0.82;;;;;;;8.04;100.00;99053.72;1724848;82;21008;-81
2021/09/20 01:01:19;;;;;;;0.98;0.90;;;;;;;8.04;100.00;99051.57;1725102;83;21059;-79
2021/09/20 01:03:46;;;;;;;1.00;0.90;;;;;;;8.04;100.00;99057.66;1725365;83;21449;-75
2021/09/20 01:06:12;;;;;;;1.22;1.00;;;;;;;8.06;100.00;99046.64;1724700;82;21133;-75
2021/09/20 01:08:38;;;;;;;0.80;0.80;;;;;;;8.04;100.00;99047.17;1725111;82;21258;-78
2021/09/20 01:11:05;;;;;;;1.22;1.00;;;;;;;8.05;100.00;99050.20;1717161;82;21014;-76
2021/09/20 01:13:32;;;;;;;2.35;0.90;;;;;;;8.06;100.00;99051.89;1708167;83;21065;-78
2021/09/20 01:16:00;;;;;;;1.12;0.82;;;;;;;8.09;100.00;99043.03;1722414;82;21982;-76
2021/09/20 01:18:27;;;;;;;2.00;1.00;;;;;;;8.10;100.00;99046.91;1729212;82;21053;-77
2021/09/20 01:20:56;;;;;;;1.57;0.95;;;;;;;8.07;100.00;99048.34;1713486;82;21120;-78
2021/09/20 01:23:23;;;;;;;1.45;0.70;;;;;;;8.07;100.00;99045.71;1712695;83;21739;-78
2021/09/20 01:25:49;;;;;;;1.27;0.80;;;;;;;8.07;100.00;99039.16;1678282;85;21692;-78
2021/09/20 01:28:17;;;;;;;0.70;0.70;;;;;;;8.08;100.00;99044.81;1691694;84;21089;-77
2021/09/20 01:30:44;;;;;;;1.32;0.70;;;;;;;8.07;100.00;99040.47;1694258;84;21113;-77
2021/09/20 01:33:11;;;;;;;0.95;0.80;;;;;;;8.06;100.00;99044.48;1689997;84;21083;-78
2021/09/20 01:35:38;;;;;;;0.62;0.60;;;;;;;8.07;100.00;99045.71;1708802;83;21022;-78
2021/09/20 01:38:04;;;;;;;1.60;0.80;;;;;;;8.07;100.00;99043.09;1704383;84;21040;-78
2021/09/20 01:40:31;;;;;;;3.08;0.88;;;;;;;8.06;100.00;99042.71;1704807;84;21352;-81
2021/09/20 01:42:57;;;;;;;0.82;0.70;;;;;;;8.07;100.00;99047.48;1704850;84;21049;-79
2021/09/20 01:45:25;;;;;;;0.90;0.75;;;;;;;8.08;100.00;99044.81;1704470;84;21030;-77
2021/09/20 01:47:53;;;;;;;1.15;0.78;;;;;;;8.09;100.00;99038.63;1704365;84;21537;-80
2021/09/20 01:50:19;;;;;;;1.10;0.72;;;;;;;8.10;100.00;99041.66;1704481;83;21057;-81
2021/09/20 01:52:46;;;;;;;1.30;0.62;;;;;;;8.09;100.00;99041.72;1704545;84;21094;-81
2021/09/20 01:55:14;;;;;;;0.72;0.57;;;;;;;8.08;100.00;99042.66;1704609;83;21042;-80
2021/09/20 01:57:42;;;;;;;1.75;0.90;;;;;;;8.11;100.00;99042.05;1704560;84;21101;-79
2021/09/20 02:00:11;;;;;;;1.00;0.80;;;;;;;8.10;100.00;99040.35;1704682;83;21116;-81
2021/09/20 02:02:39;;;;;;;1.70;0.98;;;;;;;8.12;100.00;99040.27;1704742;84;21120;-79
2021/09/20 02:05:08;;;;;;;0.80;0.70;;;;;;;8.16;100.00;99043.99;1704978;84;21845;-80
2021/09/20 02:07:36;;;;;;;1.27;0.70;;;;;;;8.17;100.00;99035.69;1651687;86;21231;-80
2021/09/20 02:10:04;;;;;;;0.68;0.65;;;;;;;8.21;100.00;99042.48;1651673;86;21573;-77
2021/09/20 02:12:34;;;;;;;1.10;0.60;;;;;;;8.23;100.00;99037.17;1651506;86;21142;-77
2021/09/20 02:15:02;;;;;;;1.17;0.60;;;;;;;8.24;100.00;99046.30;1651758;86;21091;-77
2021/09/20 02:17:30;;;;;;;1.92;0.80;;;;;;;8.25;100.00;99041.42;1651520;86;21027;-78
2021/09/20 02:19:56;;;;;;;1.92;0.75;;;;;;;8.27;100.00;99029.09;1651416;86;21447;-77
2021/09/20 02:22:24;;;;;;;0.78;0.72;;;;;;;8.27;100.00;99043.99;1651416;86;21070;-78
2021/09/20 02:24:50;;;;;;;0.80;0.68;;;;;;;8.30;100.00;99041.22;1652818;85;21578;-78
2021/09/20 02:27:17;;;;;;;1.00;0.90;;;;;;;8.31;100.00;99031.98;1679085;85;21046;-80
2021/09/20 02:29:43;;;;;;;1.00;0.90;;;;;;;8.31;100.00;99039.01;1679251;85;21493;-78
2021/09/20 02:32:11;;;;;;;1.10;0.78;;;;;;;8.28;100.00;99037.81;1679091;85;21554;-78
2021/09/20 02:34:39;;;;;;;1.00;0.90;;;;;;;8.29;100.00;99047.40;1679477;84;21392;-79
2021/09/20 02:37:06;;;;;;;0.95;0.85;;;;;;;8.29;100.00;99039.53;1682085;85;21043;-79
2021/09/20 02:39:33;;;;;;;3.67;0.68;;;;;;;8.27;100.00;99038.28;1682195;85;21066;-78
2021/09/20 02:42:00;;;;;;;0.93;0.82;;;;;;;8.26;100.00;99035.71;1682088;85;21097;-78
2021/09/20 02:44:26;;;;;;;2.60;0.68;;;;;;;8.30;100.00;99022.86;1682083;85;21629;-79
2021/09/20 02:46:53;;;;;;;0.80;0.70;;;;;;;8.30;100.00;99037.28;1682404;84;21057;-78
2021/09/20 02:49:19;;;;;;;1.87;0.80;;;;;;;8.33;100.00;99033.23;1709290;83;21594;-77
2021/09/20 02:51:47;;;;;;;2.35;0.90;;;;;;;8.33;100.00;99042.41;1681594;85;21049;-78
2021/09/20 02:54:14;;;;;;;0.70;0.70;;;;;;;8.34;100.00;99036.23;1700555;84;21509;-79
2021/09/20 02:56:43;;;;;;;0.70;0.70;;;;;;;8.33;100.00;99028.83;1710740;83;21037;-79
2021/09/20 02:59:10;;;;;;;0.95;0.57;;;;;;;8.33;100.00;99034.55;1704573;81;21015;-78
2021/09/20 03:01:37;;;;;;;1.60;0.70;;;;;;;8.32;100.00;99027.58;1690552;83;21024;-76
2021/09/20 03:04:05;;;;;;;1.77;0.62;;;;;;;8.29;100.00;99036.91;1702570;83;21493;-77
2021/09/20 03:06:31;;;;;;;0.78;0.60;;;;;;;8.30;100.00;99031.57;1680705;85;21436;-78
2021/09/20 03:09:02;;;;;;;0.70;0.70;;;;;;;8.34;100.00;99033.61;1697932;84;21084;-77
2021/09/20 03:11:28;;;;;;;1.27;0.65;;;;;;;8.32;100.00;99034.14;1678962;85;21102;-76
2021/09/20 03:13:56;;;;;;;1.27;0.75;;;;;;;8.32;100.00;99034.14;1697691;84;21537;-77
2021/09/20 03:16:22;;;;;;;0.88;0.65;;;;;;;8.33;100.00;99034.55;1679017;85;21708;-76
2021/09/20 03:18:50;;;;;;;0.68;0.60;;;;;;;8.33;100.00;99035.86;1697753;84;21153;-77
2021/09/20 03:21:19;;;;;;;1.77;0.60;;;;;;;8.33;100.00;99050.28;1678788;85;21084;-77
2021/09/20 03:23:47;;;;;;;0.95;0.80;;;;;;;8.32;100.00;99045.94;1692821;84;21103;-76
2021/09/20 03:26:14;;;;;;;1.42;0.70;;;;;;;8.31;100.00;99049.03;1653220;85;21124;-78
2021/09/20 03:28:41;;;;;;;1.02;0.90;;;;;;;8.31;100.00;99048.19;1671451;85;21152;-77
2021/09/20 03:31:08;;;;;;;1.17;0.70;;;;;;;8.26;100.00;99051.02;1680355;85;21281;-77
2021/09/20 03:33:36;;;;;;;2.20;0.95;;;;;;;8.28;100.00;99050.92;1671314;85;21109;-75
2021/09/20 03:36:04;;;;;;;1.02;0.70;;;;;;;8.27;100.00;99051.39;1685910;84;21039;-77
2021/09/20 03:38:30;;;;;;;2.08;1.00;;;;;;;8.24;100.00;99054.16;1690661;84;21583;-77
2021/09/20 03:40:57;;;;;;;1.72;0.93;;;;;;;8.24;100.00;99058.56;1690502;84;21582;-76
2021/09/20 03:43:23;;;;;;;2.98;0.70;;;;;;;8.26;100.00;99056.70;1690895;84;22102;-76
2021/09/20 03:45:52;;;;;;;1.10;0.80;;;;;;;8.25;100.00;99052.39;1690560;84;21519;-77
2021/09/20 03:48:18;;;;;;;0.60;0.60;;;;;;;8.24;100.00;99063.34;1690507;84;21052;-75
2021/09/20 03:50:46;;;;;;;1.25;0.72;;;;;;;8.26;100.00;99060.63;1690513;84;21096;-76
2021/09/20 03:53:13;;;;;;;1.15;1.00;;;;;;;8.27;100.00;99057.11;1690493;84;21123;-78
2021/09/20 03:55:40;;;;;;;0.90;0.78;;;;;;;8.29;100.00;99068.38;1690484;84;21957;-77
2021/09/20 03:58:07;;;;;;;1.95;0.90;;;;;;;8.31;100.00;99070.48;1690593;84;21540;-76
2021/09/20 04:00:36;;;;;;;2.52;1.00;;;;;;;8.33;100.00;99066.02;1700392;83;21107;-81
2021/09/20 04:03:02;;;;;;;2.15;1.17;;;;;;;8.36;100.00;99071.13;1719482;83;21625;-79
2021/09/20 04:05:29;;;;;;;2.40;1.00;;;;;;;8.38;100.00;99072.75;1719393;83;21044;-73
2021/09/20 04:07:55;;;;;;;2.25;1.32;;;;;;;8.39;100.00;99073.59;1716748;83;21118;-75
2021/09/20 04:10:23;;;;;;;1.30;1.20;;;;;;;8.39;100.00;99084.09;1702740;83;21615;-75
2021/09/20 04:12:49;;;;;;;7.80;1.57;;;;;;;8.40;100.00;99084.53;1703434;83;21077;-76
2021/09/20 04:15:17;;;;;;;2.42;1.57;;;;;;;8.42;100.00;99087.06;1719410;83;21012;-75
2021/09/20 04:17:45;;;;;;;1.87;1.70;;;;;;;8.41;100.00;99088.84;1711347;83;21060;-75
2021/09/20 04:20:13;;;;;;;2.00;1.40;;;;;;;8.41;100.00;99091.47;1688596;83;21068;-75
2021/09/20 04:22:40;;;;;;;2.77;1.90;;;;;;;8.44;100.00;99090.48;1657604;84;21070;-75
2021/09/20 04:25:09;;;;;;;2.58;1.62;;;;;;;8.46;100.00;99092.11;1695419;83;21614;-79
2021/09/20 04:27:35;;;;;;;3.00;1.70;;;;;;;8.47;100.00;99096.45;1690500;84;21036;-79
2021/09/20 04:30:05;;;;;;;5.22;1.72;;;;;;;8.51;100.00;99099.77;1704241;83;21108;-80
2021/09/20 04:32:34;;;;;;;2.83;1.80;;;;;;;8.53;100.00;99094.84;1702402;83;21024;-78
2021/09/20 04:35:01;;;;;;;2.33;1.50;;;;;;;8.57;100.00;99109.53;1690709;84;21131;-80
2021/09/20 04:37:27;;;;;;;2.37;1.85;;;;;;;8.58;100.00;99107.76;1671143;83;21589;-80
2021/09/20 04:39:54;;;;;;;2.62;2.00;;;;;;;8.63;100.00;99108.86;1666456;84;21051;-79
2021/09/20 04:42:20;;;;;;;3.05;2.00;;;;;;;8.65;100.00;99105.70;1657416;86;21058;-81
2021/09/20 04:44:47;;;;;;;5.03;2.05;;;;;;;8.66;100.00;99109.59;1672720;85;21950;-80
2021/09/20 04:50:23;;;;;;;3.75;1.92;;;;;;;8.70;100.00;99111.63;1796242;79;28133;-77
2021/09/20 04:52:51;;;;;;;2.72;1.87;;;;;;;8.64;100.00;99114.05;1756138;80;21548;-76
2021/09/20 04:55:19;;;;;;;5.15;1.77;;;;;;;8.66;100.00;99121.87;1744126;81;21525;-77
2021/09/20 04:57:45;;;;;;;2.58;1.82;;;;;;;8.69;100.00;99119.09;1743304;82;20989;-79
2021/09/20 05:00:14;;;;;;;3.87;1.37;;;;;;;8.71;100.00;99122.50;1747798;82;21049;-77
2021/09/20 05:02:40;;;;;;;4.20;1.40;;;;;;;8.71;100.00;99122.03;1747846;82;20993;-76
2021/09/20 05:05:10;;;;;;;1.40;1.30;;;;;;;8.72;100.00;99125.50;1748227;82;21294;-79
2021/09/20 05:07:39;;;;;;;3.40;1.50;;;;;;;8.74;100.00;99121.04;1748051;82;21551;-82
2021/09/20 05:10:09;;;;;;;1.47;1.17;;;;;;;8.74;100.00;99118.42;1747883;82;20919;-79
2021/09/20 05:12:37;;;;;;;4.53;1.60;;;;;;;8.77;100.00;99130.11;1747631;82;21061;-76
2021/09/20 05:15:06;;;;;;;2.60;1.10;;;;;;;8.80;100.00;99123.39;1747047;82;21837;-75
2021/09/20 05:17:34;;;;;;;1.92;1.45;;;;;;;8.82;100.00;99130.28;1683974;85;21643;-78
2021/09/20 05:20:05;;;;;;;2.87;1.40;;;;;;;8.83;100.00;99135.06;1682145;84;21377;-78
2021/09/20 05:22:33;;;;;;;4.33;2.10;;;;;;;8.88;100.00;99137.04;1681181;84;21076;-78
2021/09/20 05:25:01;;;;;;;1.92;1.60;;;;;;;8.92;100.00;99137.27;1685389;82;21041;-77
2021/09/20 05:27:29;;;;;;;3.75;1.50;;;;;;;8.97;100.00;99136.61;1689442;84;21071;-76
2021/09/20 05:29:57;;;;;;;2.47;1.40;;;;;;;9.00;100.00;99135.15;1690195;84;21116;-85
2021/09/20 05:32:23;;;;;;;1.30;1.20;;;;;;;9.04;100.00;99139.78;1686927;85;21163;-85
2021/09/20 05:34:50;;;;;;;5.35;1.50;;;;;;;9.05;100.00;99142.81;1674872;85;21611;-87
2021/09/20 05:37:18;;;;;;;2.58;1.80;;;;;;;9.05;100.00;99139.34;1681453;84;21081;-87
2021/09/20 05:39:45;;;;;;;3.37;1.45;;;;;;;9.03;100.00;99145.50;1673368;84;21109;-89
2021/09/20 05:42:12;;;;;;;1.75;1.40;;;;;;;9.05;100.00;99144.59;1677755;84;21101;-91
2021/09/20 05:44:39;;;;;;;2.55;1.70;;;;;;;9.01;100.00;99140.78;1683284;85;21009;-86
2021/09/20 05:47:05;;;;;;;2.35;1.50;;;;;;;9.00;100.00;99144.34;1697835;84;21080;-87
2021/09/20 05:49:32;;;;;;;2.67;1.55;;;;;;;9.00;100.00;99152.22;1703305;83;21594;-85
2021/09/20 05:51:58;;;;;;;2.47;1.52;;;;;;;9.02;100.00;99151.69;1701259;83;21121;-86
2021/09/20 05:54:25;;;;;;;2.27;1.70;;;;;;;9.08;100.00;99161.52;1709621;83;21076;-87
2021/09/20 05:56:53;;;;;;;2.45;1.60;;;;;;;9.12;100.00;99157.83;1700381;84;21074;-84
2021/09/20 05:59:20;;;;;;;2.27;1.62;;;;;;;9.12;100.00;99165.23;1706924;83;21046;-79
2021/09/20 06:01:49;;;;;;;3.17;1.70;;;;;;;9.13;100.00;99164.77;1684278;84;21087;-79
2021/09/20 06:04:15;;;;;;;2.70;1.80;;;;;;;9.17;100.00;99166.34;1678283;85;21652;-79
2021/09/20 06:06:42;;;;;;;4.58;1.95;;;;;;;9.16;100.00;99163.34;1709296;83;21556;-80
2021/09/20 06:09:10;;;;;;;2.85;2.12;;;;;;;9.17;100.00;99173.75;1699800;84;21104;-79
2021/09/20 06:11:37;;;;;;;2.72;1.70;;;;;;;9.18;100.00;99173.31;1709436;83;21087;-79
2021/09/20 06:14:06;;;;;;;2.40;1.80;;;;;;;9.19;100.00;99181.57;1688088;84;21097;-80
2021/09/20 06:16:32;;;;;;;3.08;2.30;;;;;;;9.24;100.00;99179.58;1679514;85;21119;-80
2021/09/20 06:18:58;;;;;;;2.72;1.87;;;;;;;9.29;100.00;99182.83;1680010;84;21046;-79
2021/09/20 06:21:25;;;;;;;3.55;2.05;;;;;;;9.35;100.00;99187.81;1679833;83;21125;-80
2021/09/20 06:23:51;;;;;;;2.20;1.85;;;;;;;9.41;100.00;99190.16;1678055;84;21089;-79
2021/09/20 06:26:18;;;;;;;2.47;1.60;;;;;;;9.44;100.00;99192.63;1690048;83;21034;-80
2021/09/20 06:28:45;;;;;;;1.92;1.65;;;;;;;9.48;100.00;99197.73;1671690;84;21134;-79
2021/09/20 06:31:12;;;;;;;2.37;1.70;;;;;;;9.49;100.00;99200.77;1657797;85;21060;-80
2021/09/20 06:33:38;;;;;;;3.30;1.60;;;;;;;9.51;100.00;99198.92;1659195;85;21154;-80
2021/09/20 06:36:05;;;;;;;2.02;1.72;;;;;;;9.55;100.00;99204.43;1653065;85;21056;-79
2021/09/20 06:38:31;;;;;;;1.50;1.40;;;;;;;9.57;100.00;99203.87;1676328;84;21137;-80
2021/09/20 06:40:58;;;;;;;2.90;1.98;;;;;;;9.57;100.00;99206.50;1694344;83;21157;-80
2021/09/20 06:43:24;;;;;;;3.12;1.65;;;;;;;9.62;100.00;99203.20;1681811;83;21048;-80
2021/09/20 06:45:52;;;;;;;3.42;1.80;;;;;;;9.61;100.00;99208.06;1690706;84;22003;-79
2021/09/20 06:48:21;;;;;;;2.58;1.57;;;;;;;9.60;100.00;99208.53;1683967;83;21064;-81
2021/09/20 06:50:48;;;;;;;2.05;1.70;;;;;;;9.64;100.00;99211.41;1669317;84;21516;-80
2021/09/20 06:53:14;;;;;;;1.60;1.50;;;;;;;9.66;100.00;99217.88;1673210;84;21085;-79
2021/09/20 06:58:21;;;;;;;7.92;2.52;;;;;;;9.76;100.00;99221.80;1881658;76;28513;-81
2021/09/20 07:00:51;;;;;;;3.47;2.12;;;;;;;9.75;100.00;99224.48;1843552;77;20960;-81
2021/09/20 07:03:19;;;;;;;1.82;1.70;;;;;;;9.81;100.00;99230.78;1853468;77;21224;-79
2021/09/20 07:05:46;;;;;;;3.05;2.00;;;;;;;9.84;100.00;99230.61;1840055;77;22053;-80
2021/09/20 07:08:13;;;;;;;2.27;2.02;;;;;;;9.84;100.00;99230.15;1854464;77;20940;-80
2021/09/20 07:10:40;;;;;;;2.83;2.02;;;;;;;9.89;100.00;99233.87;1848894;77;21052;-81
2021/09/20 07:13:11;;;;;;;2.92;2.05;;;;;;;9.91;100.00;99241.70;1834872;77;21499;-80
2021/09/20 07:15:37;;;;;;;2.02;1.60;;;;;;;9.93;100.00;99244.64;1834601;77;21531;-80
2021/09/20 07:18:05;;;;;;;2.00;1.70;;;;;;;9.96;100.00;99245.83;1858402;77;21007;-80
2021/09/20 07:20:32;;;;;;;1.87;1.67;;;;;;;9.96;100.00;99247.58;1824627;77;21595;-80
2021/09/20 07:22:59;;;;;;;3.00;2.10;;;;;;;9.98;100.00;99252.30;1850027;77;21011;-80
2021/09/20 07:25:26;;;;;;;3.98;2.12;;;;;;;10.00;100.00;99249.14;1852146;77;21188;-80
2021/09/20 07:27:52;;;;;;;1.60;1.50;;;;;;;10.06;100.00;99253.64;1815611;77;21567;-79
2021/09/20 07:30:18;;;;;;;1.65;1.55;;;;;;;10.09;100.00;99252.64;1797056;77;20957;-85
2021/09/20 07:32:50;;;;;;;4.40;1.62;;;;;;;10.12;100.00;99256.42;1800405;78;21009;-88
2021/09/20 07:35:17;;;;;;;1.80;1.60;;;;;;;10.15;100.00;99261.55;1819667;78;21013;-85
2021/09/20 07:37:45;;;;;;;3.50;2.15;;;;;;;10.16;100.00;99267.19;1823916;76;20985;-86
2021/09/20 07:40:12;;;;;;;2.40;1.72;;;;;;;10.23;100.00;99268.59;1820814;75;21405;-86
2021/09/20 07:42:39;;;;;;;2.75;1.90;;;;;;;10.32;100.00;99266.48;1798979;76;21089;-87
2021/09/20 07:45:08;;;;;;;2.83;1.60;;;;;;;10.31;100.00;99264.75;1808745;78;21024;-87
2021/09/20 07:47:35;;;;;;;3.58;2.17;;;;;;;10.36;100.00;99273.30;1797975;78;21000;-86
2021/09/20 07:50:03;;;;;;;4.00;2.25;;;;;;;10.37;100.00;99278.46;1805227;78;21012;-88
2021/09/20 07:52:29;;;;;;;3.00;1.95;;;;;;;10.37;100.00;99274.98;1803717;78;21574;-88
2021/09/20 07:54:57;;;;;;;2.20;2.00;;;;;;;10.36;100.00;99279.41;1799978;78;21528;-89
2021/09/20 07:57:26;;;;;;;2.40;1.95;;;;;;;10.25;100.00;99279.89;1801738;78;21012;-87
2021/09/20 07:59:52;;;;;;;2.42;1.98;;;;;;;10.26;100.00;99282.93;1811892;78;20985;-89
2021/09/20 08:02:18;;;;;;;1.90;1.80;;;;;;;10.25;100.00;99285.16;1811877;78;21031;-85
2021/09/20 08:04:45;;;;;;;2.37;1.70;;;;;;;10.23;100.00;99287.01;1819973;78;21093;-88
2021/09/20 08:07:12;;;;;;;2.42;1.70;;;;;;;10.23;100.00;99289.64;1824999;78;21459;-89
2021/09/20 08:09:39;;;;;;;2.58;2.00;;;;;;;10.28;100.00;99294.67;1816018;78;21004;-89
2021/09/20 08:12:09;;;;;;;1.98;1.75;;;;;;;10.27;100.00;99292.52;1825101;78;21004;-89
2021/09/20 08:14:37;;;;;;;1.87;1.32;;;;;;;10.31;100.00;99297.65;1802167;78;21043;-90
2021/09/20 08:17:04;;;;;;;1.32;1.22;;;;;;;10.32;100.00;99299.37;1812764;78;21956;-87
2021/09/20 08:19:32;;;;;;;3.08;1.47;;;;;;;10.41;100.00;99300.23;1817608;78;21024;-88
2021/09/20 08:21:59;;;;;;;1.47;1.37;;;;;;;10.39;100.00;99297.66;1803949;78;21095;-89
2021/09/20 08:24:26;;;;;;;3.35;1.47;;;;;;;10.43;100.00;99302.33;1818110;78;21001;-87
2021/09/20 08:26:54;;;;;;;3.77;1.60;;;;;;;10.49;100.00;99298.09;1804938;78;21015;-84
2021/09/20 08:29:22;;;;;;;2.22;1.20;;;;;;;10.53;100.00;99303.56;1821684;77;21143;-76
2021/09/20 08:31:50;;;;;;;2.05;1.30;;;;;;;10.58;100.00;99297.63;1817034;78;21639;-76
2021/09/20 08:34:16;;;;;;;3.90;1.10;;;;;;;10.65;100.00;99299.02;1792233;80;21593;-77
2021/09/20 08:36:42;;;;;;;3.20;1.37;;;;;;;10.71;100.00;99305.73;1807854;78;20984;-76
2021/09/20 08:39:09;;;;;;;4.75;1.37;;;;;;;10.78;100.00;99302.33;1822357;77;21040;-84
2021/09/20 08:41:37;;;;;;;3.70;1.67;;;;;;;10.86;100.00;99302.80;1822772;78;21439;-84
2021/09/20 08:44:04;;;;;;;2.45;1.50;;;;;;;10.90;100.00;99309.59;1811268;77;22088;-75
2021/09/20 08:46:32;;;;;;;2.35;1.75;;;;;;;10.90;100.00;99304.33;1794884;78;21016;-75
2021/09/20 08:49:01;;;;;;;2.60;1.50;;;;;;;10.87;100.00;99312.39;1737803;80;21079;-77
2021/09/20 08:51:27;;;;;;;2.40;1.40;;;;;;;10.85;100.00;99322.16;1809216;78;21270;-77
2021/09/20 08:53:54;;;;;;;2.83;1.40;;;;;;;10.87;100.00;99320.30;1809299;78;21153;-76
2021/09/20 08:56:22;;;;;;;1.42;1.32;;;;;;;10.90;100.00;99319.69;1777326;80;21530;-75
2021/09/20 08:58:50;;;;;;;2.00;1.62;;;;;;;10.95;100.00;99324.72;1800713;78;21502;-76
2021/09/20 09:01:16;;;;;;;3.37;1.70;;;;;;;10.97;100.00;99325.47;1801176;78;21127;-76
2021/09/20 09:03:43;;;;;;;2.58;2.08;;;;;;;10.97;100.00;99330.73;1791036;78;21079;-77
2021/09/20 09:06:10;;;;;;;5.72;2.02;;;;;;;10.97;100.00;99325.47;1786580;78;22037;-76
2021/09/20 09:08:40;;;;;;;3.95;2.20;;;;;;;10.99;100.00;99336.78;1785594;80;20985;-76
2021/09/20 09:11:12;;;;;;;3.50;2.17;;;;;;;11.00;100.00;99337.19;1785705;78;21031;-78
2021/09/20 09:13:46;;;;;;;7.33;3.00;;;;;;;11.02;100.00;99341.91;1792959;78;21091;-83
2021/09/20 09:16:29;;;;;;;4.45;2.62;;;;;;;11.08;100.00;99341.58;1798096;78;20972;-80
2021/09/20 09:19:11;;;;;;;3.40;2.50;;;;;;;11.16;100.00;99345.59;1789022;78;20993;-81
2021/09/20 09:21:41;;;;;;;7.22;3.00;;;;;;;11.19;100.00;99343.67;1801266;78;21059;-88
2021/09/20 09:24:13;;;;;;;3.40;2.80;;;;;;;11.20;100.00;99349.31;1796220;78;21028;-85
2021/09/20 09:26:59;;;;;;;2.83;2.40;;;;;;;11.23;100.00;99349.65;1798205;78;21122;-87
2021/09/20 09:29:29;;;;;;;3.35;2.60;;;;;;;11.23;100.00;99354.92;1799811;78;21378;-86
2021/09/20 09:31:58;;;;;;;3.70;2.60;;;;;;;11.21;100.00;99354.98;1800399;77;21064;-87
2021/09/20 09:34:31;;;;;;;3.70;2.50;;;;;;;11.16;100.00;99357.02;1796451;78;21070;-87
2021/09/20 09:37:11;;;;;;;3.52;2.58;;;;;;;11.15;100.00;99367.16;1800808;78;21742;-86
2021/09/20 09:39:38;;;;;;;3.87;2.72;;;;;;;11.11;100.00;99370.42;1818734;78;21060;-87
2021/09/20 09:42:08;;;;;;;4.92;3.00;;;;;;;11.09;100.00;99380.19;1800626;78;21021;-85
2021/09/20 09:44:35;;;;;;;5.15;2.62;;;;;;;11.09;100.00;99377.55;1801602;78;21112;-85
2021/09/20 09:47:01;;;;;;;6.67;3.05;;;;;;;11.13;100.00;99385.70;1785645;80;21056;-76
2021/09/20 09:49:28;;;;;;;4.05;2.20;;;;;;;11.24;100.00;99384.28;1796998;78;21361;-78
2021/09/20 09:52:00;;;;;;;5.28;2.65;;;;;;;11.53;100.00;99387.57;1805082;78;20961;-77
2021/09/20 09:54:34;;;;;;;3.90;2.50;;;;;;;11.87;100.00;99380.53;1798960;78;20991;-77
2021/09/20 09:57:23;;;;;;;4.37;2.25;;;;;;;12.29;100.00;99383.53;1797078;78;21078;-78
2021/09/20 10:00:00;;;;;;;4.75;2.42;;;;;;;12.62;100.00;99380.75;1807868;78;21004;-77
2021/09/20 10:02:36;;;;;;;5.22;2.50;;;;;;;12.90;100.00;99372.55;1806311;78;21028;-77
2021/09/20 10:05:21;;;;;;;3.42;2.30;;;;;;;13.04;100.00;99371.73;1802426;78;21134;-76
2021/09/20 10:07:50;;;;;;;3.50;2.50;;;;;;;13.11;100.00;99381.00;1803975;78;21095;-77
2021/09/20 10:10:26;;;;;;;3.10;2.05;;;;;;;13.11;99.93;99384.52;1808945;78;21093;-77
2021/09/20 10:12:58;;;;;;;2.62;1.98;;;;;;;13.21;100.00;99383.48;1794666;78;21067;-77
2021/09/20 10:15:29;;;;;;;2.52;2.10;;;;;;;13.51;100.00;99380.81;1805431;76;21311;31
2021/09/20 10:17:56;;;;;;;4.22;2.20;;;;;;;13.70;99.49;99378.36;1725211;81;21100;-78
2021/09/20 10:20:25;;;;;;;4.60;1.95;;;;;;;13.78;97.76;99385.34;1746521;81;21037;-76
2021/09/20 10:22:55;;;;;;;3.42;2.12;;;;;;;13.80;96.32;99388.73;1745990;80;21170;-76
2021/09/20 10:25:25;;;;;;;2.27;1.80;;;;;;;13.68;94.58;99394.32;1776280;80;21722;-76
2021/09/20 10:27:52;;;;;;;3.85;1.82;;;;;;;13.49;94.35;99385.34;1778545;80;21077;-77
2021/09/20 10:30:28;;;;;;;1.95;1.57;;;;;;;13.32;94.37;99393.44;1735823;80;21136;-77
2021/09/20 10:33:04;;;;;;;2.00;1.70;;;;;;;13.20;94.70;99394.99;1749166;80;21074;-76
2021/09/20 10:35:41;;;;;;;3.90;1.80;;;;;;;13.10;95.86;99410.55;1773607;80;21615;-76
2021/09/20 10:38:26;;;;;;;3.00;1.95;;;;;;;13.07;96.23;99413.39;1779738;79;21021;-76
2021/09/20 10:41:16;;;;;;;2.70;1.80;;;;;;;13.05;96.76;99421.03;1780330;79;21026;-75
2021/09/20 10:43:46;;;;;;;3.10;1.80;;;;;;;12.98;96.30;99419.21;1780047;80;21065;-75
2021/09/20 10:46:20;;;;;;;2.45;1.80;;;;;;;12.89;95.62;99423.71;1780544;80;21162;-76
2021/09/20 10:48:56;;;;;;;4.33;2.67;;;;;;;12.74;95.74;99427.59;1760305;79;21152;-74
2021/09/20 10:51:38;;;;;;;5.33;1.92;;;;;;;12.71;97.19;99428.25;1751013;81;21335;-75
2021/09/20 10:54:18;;;;;;;2.15;1.82;;;;;;;12.76;97.58;99431.00;1750684;80;21098;-75
2021/09/20 10:56:55;;;;;;;1.85;1.70;;;;;;;12.80;96.46;99425.93;1750972;81;21025;-75
2021/09/20 10:59:20;;;;;;;2.00;1.80;;;;;;;12.83;95.70;99426.22;1749894;80;21578;-76
2021/09/20 11:01:59;;;;;;;4.83;1.70;;;;;;;12.93;96.52;99426.53;1723754;82;21143;-75
2021/09/20 11:04:32;;;;;;;2.77;1.75;;;;;;;13.15;95.84;99424.34;1750862;81;21109;-74
2021/09/20 11:07:20;;;;;;;2.42;1.70;;;;;;;13.64;94.91;99425.88;1750777;81;21557;-76
2021/09/20 11:09:50;;;;;;;2.22;1.82;;;;;;;14.12;93.74;99412.35;1776582;80;21045;-74
2021/09/20 11:12:23;;;;;;;4.62;1.60;;;;;;;14.45;89.18;99419.48;1780156;80;20982;-76
2021/09/20 11:15:12;;;;;;;5.65;2.02;;;;;;;14.54;85.62;99418.08;1781171;79;21217;-75
2021/09/20 11:17:44;;;;;;;3.80;1.80;;;;;;;14.53;85.20;99428.25;1781055;80;21545;-75
2021/09/20 11:20:36;;;;;;;1.70;1.35;;;;;;;14.58;85.57;99427.50;1786451;80;21022;-75
2021/09/20 11:23:22;;;;;;;1.50;1.35;;;;;;;14.61;84.50;99434.43;1785187;78;21589;-74
2021/09/20 11:26:14;;;;;;;2.08;1.32;;;;;;;14.61;83.46;99438.41;1780607;78;21745;-77
2021/09/20 11:28:46;;;;;;;1.65;1.40;;;;;;;14.54;83.03;99437.05;1783524;78;21537;-75
2021/09/20 11:31:13;;;;;;;3.58;1.67;;;;;;;14.30;83.58;99445.61;1783080;80;22271;-76
2021/09/20 11:33:44;;;;;;;4.90;1.20;;;;;;;14.07;83.84;99455.00;1776502;78;21064;-78
2021/09/20 11:36:20;;;;;;;;;;;;;;;13.90;83.97;99449.44;1778482;78;21044;-86
2021/09/20 11:38:51;;;;;;;1.98;1.30;;;;;;;13.71;84.41;99458.11;1779050;77;20469;-82
2021/09/20 11:41:24;;;;;;;1.60;1.12;;;;;;;13.48;85.27;99460.37;1778112;78;21138;-82
2021/09/20 11:43:52;;;;;;;3.30;1.10;;;;;;;13.40;85.93;99454.66;1782145;78;21032;-82
2021/09/20 11:46:21;;;;;;;2.92;1.32;;;;;;;13.35;86.35;99459.38;1785359;77;21087;-81